Time,TemperatureF,DewpointF,PressureIn,WindDirection,WindDirectionDegrees,WindSpeedMPH,WindSpeedGustMPH,Humidity,HourlyPrecipIn,Conditions,Clouds,dailyrainin,SolarRadiationWatts/m^2,SoftwareType,DateUTC
2013-06-20 00:05:00,54.9,50.2,30.03,SSW,202,0.0,2.0,84,0.00,,,0.00,0,Wunderground v.1.15,2013-06-20 07:05:00,
2013-06-20 00:11:00,54.9,50.2,30.03,SSW,202,2.0,2.0,84,0.00,,,0.00,0,Wunderground v.1.15,2013-06-20 07:11:00,
2013-06-20 00:16:00,54.7,50.0,30.03,SSW,202,1.0,2.0,84,0.00,,,0.00,0,Wunderground v.1.15,2013-06-20 07:16:00,
2013-06-20 00:22:00,54.5,50.1,30.03,SSW,202,1.0,1.0,85,0.00,,,0.00,0,Wunderground v.1.15,2013-06-20 07:22:00,
2013-06-20 00:28:00,54.7,50.3,30.03,SSW,202,0.0,3.0,85,0.00,,,0.00,0,Wunderground v.1.15,2013-06-20 07:28:00,
2013-06-20 00:34:00,54.7,50.0,30.03,SSW,202,2.0,2.0,84,0.00,,,0.00,0,Wunderground v.1.15,2013-06-20 07:34:00,
2013-06-20 00:39:00,54.6,49.9,30.04,SSW,202,2.0,3.0,84,0.00,,,0.00,0,Wunderground v.1.15,2013-06-20 07:39:00,
2013-06-20 00:45:00,54.6,50.2,30.04,SSW,202,0.0,2.0,85,0.00,,,0.00,0,Wunderground v.1.15,2013-06-20 07:45:00,
2013-06-20 00:51:00,54.7,50.3,30.04,SSW,202,2.0,2.0,85,0.00,,,0.00,0,Wunderground v.1.15,2013-06-20 07:51:00,
2013-06-20 00:56:00,54.6,50.2,30.04,SSW,202,2.0,2.0,85,0.00,,,0.00,0,Wunderground v.1.15,2013-06-20 07:56:00,
2013-06-20 01:02:00,54.7,50.3,30.04,SSW,202,0.0,1.0,85,0.00,,,0.00,0,Wunderground v.1.15,2013-06-20 08:02:00,
2013-06-20 01:08:00,55.0,50.6,30.05,SSW,202,0.0,1.0,85,0.00,,,0.00,0,Wunderground v.1.15,2013-06-20 08:08:00,
2013-06-20 01:14:00,55.0,50.6,30.05,SSW,202,0.0,0.0,85,0.00,,,0.00,0,Wunderground v.1.15,2013-06-20 08:14:00,
2013-06-20 01:20:00,54.9,50.5,30.05,SSW,202,2.0,2.0,85,0.00,,,0.00,0,Wunderground v.1.15,2013-06-20 08:20:00,
2013-06-20 01:25:00,54.7,50.6,30.05,SSW,202,3.0,3.0,86,0.00,,,0.00,0,Wunderground v.1.15,2013-06-20 08:25:00,
2013-06-20 01:31:00,54.5,50.4,30.05,SSW,202,3.0,3.0,86,0.00,,,0.00,0,Wunderground v.1.15,2013-06-20 08:31:00,
2013-06-20 01:37:00,54.4,50.6,30.05,SSW,202,3.0,3.0,87,0.00,,,0.00,0,Wunderground v.1.15,2013-06-20 08:37:00,
2013-06-20 01:43:00,54.4,50.6,30.05,SSW,202,3.0,3.0,87,0.00,,,0.00,0,Wunderground v.1.15,2013-06-20 08:43:00,
2013-06-20 01:49:00,54.4,50.6,30.05,SSW,202,2.0,3.0,87,0.00,,,0.00,0,Wunderground v.1.15,2013-06-20 08:49:00,
2013-06-20 01:55:00,54.4,50.6,30.04,SSW,202,4.0,4.0,87,0.00,,,0.00,0,Wunderground v.1.15,2013-06-20 08:55:00,
2013-06-20 02:00:00,54.4,50.6,30.04,SSW,202,5.0,5.0,87,0.00,,,0.00,0,Wunderground v.1.15,2013-06-20 09:00:00,
2013-06-20 02:05:00,54.2,50.1,30.04,SSW,202,4.0,6.0,86,0.00,,,0.00,0,Wunderground v.1.15,2013-06-20 09:05:00,
2013-06-20 02:10:00,54.2,50.1,30.03,SSW,202,4.0,6.0,86,0.00,,,0.00,0,Wunderground v.1.15,2013-06-20 09:10:00,
2013-06-20 02:15:00,54.0,50.2,30.03,SSW,202,4.0,6.0,87,0.00,,,0.00,0,Wunderground v.1.15,2013-06-20 09:15:00,
2013-06-20 02:20:00,53.8,50.0,30.03,SSW,202,4.0,5.0,87,0.00,,,0.00,0,Wunderground v.1.15,2013-06-20 09:20:00,
2013-06-20 02:25:00,53.6,49.8,30.02,SSW,202,2.0,6.0,87,0.00,,,0.00,0,Wunderground v.1.15,2013-06-20 09:25:00,
2013-06-20 02:30:00,53.3,49.5,30.03,SSW,202,4.0,4.0,87,0.00,,,0.00,0,Wunderground v.1.15,2013-06-20 09:30:00,
2013-06-20 02:35:00,53.2,49.4,30.02,SSW,202,4.0,5.0,87,0.00,,,0.00,0,Wunderground v.1.15,2013-06-20 09:35:00,
2013-06-20 02:40:00,52.9,49.1,30.02,SSW,202,3.0,4.0,87,0.00,,,0.00,0,Wunderground v.1.15,2013-06-20 09:40:00,
2013-06-20 02:45:00,52.8,49.3,30.02,SSW,202,4.0,6.0,88,0.00,,,0.00,0,Wunderground v.1.15,2013-06-20 09:45:00,
2013-06-20 02:50:00,53.0,49.5,30.02,SSW,202,6.0,7.0,88,0.00,,,0.00,0,Wunderground v.1.15,2013-06-20 09:50:00,
2013-06-20 02:55:00,53.2,49.7,30.02,SSW,202,3.0,7.0,88,0.00,,,0.00,0,Wunderground v.1.15,2013-06-20 09:55:00,
2013-06-20 03:00:00,53.3,49.8,30.02,SSW,202,4.0,4.0,88,0.00,,,0.00,0,Wunderground v.1.15,2013-06-20 10:00:00,
2013-06-20 03:05:00,53.4,49.9,30.02,SSW,202,3.0,4.0,88,0.00,,,0.00,0,Wunderground v.1.15,2013-06-20 10:05:00,
2013-06-20 03:10:00,53.6,50.1,30.02,SSW,202,4.0,4.0,88,0.00,,,0.00,0,Wunderground v.1.15,2013-06-20 10:10:00,
2013-06-20 03:15:00,53.7,49.9,30.02,SSW,202,1.0,6.0,87,0.00,,,0.00,0,Wunderground v.1.15,2013-06-20 10:15:00,
2013-06-20 03:20:00,53.7,49.9,30.02,SSW,202,2.0,3.0,87,0.00,,,0.00,0,Wunderground v.1.15,2013-06-20 10:20:00,
2013-06-20 03:25:00,53.8,50.0,30.02,SSW,202,3.0,4.0,87,0.00,,,0.00,0,Wunderground v.1.15,2013-06-20 10:25:00,
2013-06-20 03:30:00,54.0,50.5,30.02,SSW,203,4.0,4.0,88,0.00,,,0.00,0,Wunderground v.1.15,2013-06-20 10:30:00,
2013-06-20 03:35:00,54.1,50.6,30.02,SSW,203,1.0,4.0,88,0.00,,,0.00,0,Wunderground v.1.15,2013-06-20 10:35:00,
2013-06-20 03:40:00,54.1,50.6,30.02,SSW,203,3.0,3.0,88,0.00,,,0.00,0,Wunderground v.1.15,2013-06-20 10:40:00,
2013-06-20 03:45:00,54.0,50.2,30.01,SSW,204,4.0,6.0,87,0.00,,,0.00,0,Wunderground v.1.15,2013-06-20 10:45:00,
2013-06-20 03:50:00,54.1,50.3,30.01,SSW,205,2.0,3.0,87,0.00,,,0.00,0,Wunderground v.1.15,2013-06-20 10:50:00,
2013-06-20 03:55:00,54.0,50.2,30.01,SSW,205,3.0,5.0,87,0.00,,,0.00,0,Wunderground v.1.15,2013-06-20 10:55:00,
2013-06-20 04:00:00,53.9,50.1,30.01,SSW,205,1.0,3.0,87,0.00,,,0.00,0,Wunderground v.1.15,2013-06-20 11:00:00,
2013-06-20 04:05:00,53.7,50.2,30.01,SSW,205,2.0,5.0,88,0.00,,,0.00,0,Wunderground v.1.15,2013-06-20 11:05:00,
2013-06-20 04:10:00,53.5,50.0,30.01,SSW,205,2.0,3.0,88,0.00,,,0.00,0,Wunderground v.1.15,2013-06-20 11:10:00,
2013-06-20 04:15:00,53.5,50.0,30.01,SSW,205,2.0,5.0,88,0.00,,,0.00,0,Wunderground v.1.15,2013-06-20 11:15:00,
2013-06-20 04:20:00,53.6,50.1,30.01,SSW,205,0.0,2.0,88,0.00,,,0.00,0,Wunderground v.1.15,2013-06-20 11:20:00,
2013-06-20 04:25:00,53.7,50.2,30.01,SSW,205,3.0,4.0,88,0.00,,,0.00,0,Wunderground v.1.15,2013-06-20 11:25:00,
2013-06-20 04:30:00,53.7,50.2,30.01,SSW,205,3.0,4.0,88,0.00,,,0.00,0,Wunderground v.1.15,2013-06-20 11:30:00,
2013-06-20 04:35:00,53.5,50.0,30.01,SSW,205,2.0,4.0,88,0.00,,,0.00,0,Wunderground v.1.15,2013-06-20 11:35:00,
2013-06-20 04:40:00,53.5,50.0,30.01,SSW,205,2.0,3.0,88,0.00,,,0.00,0,Wunderground v.1.15,2013-06-20 11:40:00,
2013-06-20 04:45:00,53.5,50.0,30.02,SSW,205,0.0,3.0,88,0.00,,,0.00,0,Wunderground v.1.15,2013-06-20 11:45:00,
2013-06-20 04:50:00,53.6,50.1,30.02,SSW,205,1.0,1.0,88,0.00,,,0.00,0,Wunderground v.1.15,2013-06-20 11:50:00,
2013-06-20 04:55:00,53.6,50.1,30.02,SSW,205,0.0,3.0,88,0.00,,,0.00,0,Wunderground v.1.15,2013-06-20 11:55:00,
2013-06-20 05:00:00,53.6,50.1,30.02,SSW,205,0.0,1.0,88,0.00,,,0.00,0,Wunderground v.1.15,2013-06-20 12:00:00,
2013-06-20 05:05:00,53.6,50.1,30.02,SSW,205,0.0,1.0,88,0.00,,,0.00,0,Wunderground v.1.15,2013-06-20 12:05:00,
2013-06-20 05:10:00,53.5,50.0,30.02,SSW,205,1.0,2.0,88,0.00,,,0.00,0,Wunderground v.1.15,2013-06-20 12:10:00,
2013-06-20 05:15:00,53.4,49.9,30.02,SSW,205,0.0,2.0,88,0.00,,,0.00,0,Wunderground v.1.15,2013-06-20 12:15:00,
2013-06-20 05:20:00,53.3,49.8,30.02,SSW,205,0.0,1.0,88,0.00,,,0.00,0,Wunderground v.1.15,2013-06-20 12:20:00,
2013-06-20 05:25:00,53.2,49.7,30.02,SSW,205,0.0,1.0,88,0.00,,,0.00,0,Wunderground v.1.15,2013-06-20 12:25:00,
2013-06-20 05:30:00,53.4,49.9,30.02,SSW,205,2.0,2.0,88,0.00,,,0.00,5,Wunderground v.1.15,2013-06-20 12:30:00,
2013-06-20 05:35:00,53.5,50.0,30.02,SSW,205,4.0,4.0,88,0.00,,,0.00,9,Wunderground v.1.15,2013-06-20 12:35:00,
2013-06-20 05:40:00,53.5,50.0,30.02,SSW,205,3.0,4.0,88,0.00,,,0.00,12,Wunderground v.1.15,2013-06-20 12:40:00,
2013-06-20 05:45:00,53.5,50.0,30.02,SSW,205,3.0,5.0,88,0.00,,,0.00,16,Wunderground v.1.15,2013-06-20 12:45:00,
2013-06-20 05:50:00,53.4,49.9,30.02,SSW,205,1.0,3.0,88,0.00,,,0.00,19,Wunderground v.1.15,2013-06-20 12:50:00,
2013-06-20 05:55:00,53.4,49.9,30.02,SSW,205,0.0,2.0,88,0.00,,,0.00,23,Wunderground v.1.15,2013-06-20 12:55:00,
2013-06-20 06:00:00,53.5,50.0,30.02,SSW,205,1.0,2.0,88,0.00,,,0.00,26,Wunderground v.1.15,2013-06-20 13:00:00,
2013-06-20 06:05:00,53.7,50.2,30.02,SSW,205,0.0,3.0,88,0.00,,,0.00,30,Wunderground v.1.15,2013-06-20 13:05:00,
2013-06-20 06:10:00,53.8,50.3,30.02,SSW,205,1.0,1.0,88,0.00,,,0.00,35,Wunderground v.1.15,2013-06-20 13:10:00,
2013-06-20 06:15:00,53.7,50.2,30.02,SSW,205,1.0,3.0,88,0.00,,,0.00,44,Wunderground v.1.15,2013-06-20 13:15:00,
2013-06-20 06:20:00,53.7,50.2,30.02,SSW,205,1.0,4.0,88,0.00,,,0.00,47,Wunderground v.1.15,2013-06-20 13:20:00,
2013-06-20 06:25:00,53.8,50.3,30.02,SSW,205,2.0,5.0,88,0.00,,,0.00,49,Wunderground v.1.15,2013-06-20 13:25:00,
2013-06-20 06:31:00,53.9,50.4,30.02,SSW,192,7.0,7.0,88,0.00,,,0.00,56,Wunderground v.1.15,2013-06-20 13:31:00,
2013-06-20 06:36:00,53.9,50.4,30.02,South,189,6.0,7.0,88,0.00,,,0.00,63,Wunderground v.1.15,2013-06-20 13:36:00,
2013-06-20 06:41:00,54.0,50.5,30.02,South,189,5.0,5.0,88,0.00,,,0.00,69,Wunderground v.1.15,2013-06-20 13:41:00,
2013-06-20 06:46:00,54.0,50.5,30.02,South,184,6.0,8.0,88,0.00,,,0.00,84,Wunderground v.1.15,2013-06-20 13:46:00,
2013-06-20 06:51:00,54.2,50.7,30.02,South,184,5.0,5.0,88,0.00,,,0.00,86,Wunderground v.1.15,2013-06-20 13:51:00,
2013-06-20 06:56:00,54.2,50.7,30.01,SSW,200,6.0,7.0,88,0.00,,,0.00,100,Wunderground v.1.15,2013-06-20 13:56:00,
2013-06-20 07:01:00,54.4,50.9,30.01,South,191,7.0,7.0,88,0.00,,,0.00,123,Wunderground v.1.15,2013-06-20 14:01:00,
2013-06-20 07:06:00,54.6,51.1,30.01,South,188,6.0,7.0,88,0.00,,,0.00,135,Wunderground v.1.15,2013-06-20 14:06:00,
2013-06-20 07:11:00,54.9,51.4,30.01,South,188,4.0,5.0,88,0.00,,,0.00,141,Wunderground v.1.15,2013-06-20 14:11:00,
2013-06-20 07:16:00,55.1,51.6,30.01,SSW,207,5.0,8.0,88,0.00,,,0.00,128,Wunderground v.1.15,2013-06-20 14:16:00,
2013-06-20 07:21:00,55.3,51.8,30.01,South,191,4.0,5.0,88,0.00,,,0.00,135,Wunderground v.1.15,2013-06-20 14:21:00,
2013-06-20 07:25:00,55.5,52.0,30.01,SSW,213,6.0,7.0,88,0.00,,,0.00,120,Wunderground v.1.15,2013-06-20 14:25:00,
2013-06-20 07:30:00,55.7,52.2,30.01,SSW,205,4.0,6.0,88,0.00,,,0.00,102,Wunderground v.1.15,2013-06-20 14:30:00,
2013-06-20 07:36:00,55.7,51.9,30.01,SSW,196,6.0,8.0,87,0.00,,,0.00,100,Wunderground v.1.15,2013-06-20 14:36:00,
2013-06-20 07:41:00,55.8,52.0,30.01,South,190,6.0,6.0,87,0.00,,,0.00,95,Wunderground v.1.15,2013-06-20 14:41:00,
2013-06-20 07:46:00,55.9,52.1,30.01,SSW,202,8.0,10.0,87,0.00,,,0.00,95,Wunderground v.1.15,2013-06-20 14:46:00,
2013-06-20 07:51:00,55.9,52.1,30.01,SSW,193,6.0,9.0,87,0.00,,,0.00,121,Wunderground v.1.15,2013-06-20 14:51:00,
2013-06-20 07:56:00,56.0,52.2,30.01,South,186,8.0,10.0,87,0.00,,,0.00,156,Wunderground v.1.15,2013-06-20 14:56:00,
2013-06-20 08:01:00,56.1,52.3,30.01,South,190,5.0,7.0,87,0.00,,,0.00,167,Wunderground v.1.15,2013-06-20 15:01:00,
2013-06-20 08:06:00,56.4,52.6,30.01,SSW,206,4.0,7.0,87,0.00,,,0.00,155,Wunderground v.1.15,2013-06-20 15:06:00,
2013-06-20 08:11:00,56.4,52.3,30.01,SSW,205,4.0,7.0,86,0.00,,,0.00,162,Wunderground v.1.15,2013-06-20 15:11:00,
2013-06-20 08:16:00,56.5,52.7,30.01,SSW,204,6.0,7.0,87,0.00,,,0.00,172,Wunderground v.1.15,2013-06-20 15:16:00,
2013-06-20 08:21:00,56.5,52.4,30.01,South,191,5.0,7.0,86,0.00,,,0.00,178,Wunderground v.1.15,2013-06-20 15:21:00,
2013-06-20 08:26:00,56.7,52.6,30.01,SSW,197,7.0,9.0,86,0.00,,,0.00,322,Wunderground v.1.15,2013-06-20 15:26:00,
2013-06-20 08:31:00,57.3,53.1,30.00,South,173,7.0,9.0,86,0.00,,,0.00,330,Wunderground v.1.15,2013-06-20 15:31:00,
2013-06-20 08:36:00,58.2,54.0,30.01,SSW,204,10.0,10.0,86,0.00,,,0.00,582,Wunderground v.1.15,2013-06-20 15:36:00,
2013-06-20 08:41:00,57.8,53.0,30.00,SSW,200,7.0,8.0,84,0.00,,,0.00,230,Wunderground v.1.15,2013-06-20 15:41:00,
2013-06-20 08:46:00,57.4,52.6,30.00,SSW,202,6.0,11.0,84,0.00,,,0.00,171,Wunderground v.1.15,2013-06-20 15:46:00,
2013-06-20 08:51:00,57.1,52.6,30.01,SSW,207,6.0,7.0,85,0.00,,,0.00,172,Wunderground v.1.15,2013-06-20 15:51:00,
2013-06-20 08:56:00,56.8,52.3,30.01,SSE,164,7.0,8.0,85,0.00,,,0.00,137,Wunderground v.1.15,2013-06-20 15:56:00,
2013-06-20 09:01:00,56.7,52.2,30.01,South,187,4.0,6.0,85,0.00,,,0.00,125,Wunderground v.1.15,2013-06-20 16:01:00,
2013-06-20 09:06:00,56.7,52.2,30.02,SSW,209,6.0,8.0,85,0.00,,,0.00,116,Wunderground v.1.15,2013-06-20 16:06:00,
2013-06-20 09:11:00,56.7,52.2,30.02,SSW,200,6.0,8.0,85,0.00,,,0.00,111,Wunderground v.1.15,2013-06-20 16:11:00,
2013-06-20 09:16:00,56.8,52.3,30.02,SSW,199,3.0,8.0,85,0.00,,,0.00,127,Wunderground v.1.15,2013-06-20 16:16:00,
2013-06-20 09:21:00,56.7,52.2,30.02,South,191,3.0,6.0,85,0.00,,,0.00,158,Wunderground v.1.15,2013-06-20 16:21:00,
2013-06-20 09:26:00,56.9,52.4,30.02,South,191,4.0,6.0,85,0.00,,,0.00,179,Wunderground v.1.15,2013-06-20 16:26:00,
2013-06-20 09:31:00,57.1,52.3,30.02,South,188,3.0,5.0,84,0.00,,,0.00,229,Wunderground v.1.15,2013-06-20 16:31:00,
2013-06-20 09:36:00,57.4,52.6,30.02,SSE,167,5.0,6.0,84,0.00,,,0.00,206,Wunderground v.1.15,2013-06-20 16:36:00,
2013-06-20 09:41:00,57.4,52.6,30.02,SSE,167,2.0,3.0,84,0.00,,,0.00,207,Wunderground v.1.15,2013-06-20 16:41:00,
2013-06-20 09:46:00,57.6,52.5,30.02,SSW,209,5.0,6.0,83,0.00,,,0.00,176,Wunderground v.1.15,2013-06-20 16:46:00,
2013-06-20 09:51:00,57.9,52.8,30.01,SSW,207,5.0,7.0,83,0.00,,,0.00,229,Wunderground v.1.15,2013-06-20 16:51:00,
2013-06-20 09:56:00,58.0,52.9,30.01,SSW,204,7.0,7.0,83,0.00,,,0.00,244,Wunderground v.1.15,2013-06-20 16:56:00,
2013-06-20 10:01:00,58.2,52.7,30.01,South,179,7.0,9.0,82,0.00,,,0.00,301,Wunderground v.1.15,2013-06-20 17:01:00,
2013-06-20 10:06:00,58.3,52.8,30.01,South,172,5.0,9.0,82,0.00,,,0.00,401,Wunderground v.1.15,2013-06-20 17:06:00,
2013-06-20 10:11:00,58.7,53.2,30.01,South,187,7.0,8.0,82,0.00,,,0.00,454,Wunderground v.1.15,2013-06-20 17:11:00,
2013-06-20 10:16:00,59.0,53.5,30.00,SSW,209,7.0,8.0,82,0.00,,,0.00,385,Wunderground v.1.15,2013-06-20 17:16:00,
2013-06-20 10:21:00,59.3,53.5,30.01,South,184,5.0,7.0,81,0.00,,,0.00,279,Wunderground v.1.15,2013-06-20 17:21:00,
2013-06-20 10:26:00,58.8,53.0,30.00,SSW,212,5.0,8.0,81,0.00,,,0.00,125,Wunderground v.1.15,2013-06-20 17:26:00,
2013-06-20 10:31:00,58.3,53.2,30.00,SSW,193,6.0,8.0,83,0.00,,,0.00,236,Wunderground v.1.15,2013-06-20 17:31:00,
2013-06-20 10:36:00,58.2,53.7,30.00,SSW,196,7.0,10.0,85,0.00,,,0.00,250,Wunderground v.1.15,2013-06-20 17:36:00,
2013-06-20 10:41:00,57.7,52.6,30.00,SW,235,6.0,13.0,83,0.00,,,0.00,227,Wunderground v.1.15,2013-06-20 17:41:00,
2013-06-20 10:46:00,57.6,52.8,30.00,WSW,247,4.0,13.0,84,0.00,,,0.00,209,Wunderground v.1.15,2013-06-20 17:46:00,
2013-06-20 10:51:00,57.4,52.6,30.00,WSW,242,3.0,8.0,84,0.00,,,0.00,253,Wunderground v.1.15,2013-06-20 17:51:00,
2013-06-20 10:56:00,57.9,53.1,30.00,SW,230,6.0,10.0,84,0.00,,,0.00,529,Wunderground v.1.15,2013-06-20 17:56:00,
2013-06-20 11:01:00,58.4,53.6,30.01,SW,232,3.0,7.0,84,0.00,,,0.00,327,Wunderground v.1.15,2013-06-20 18:01:00,
2013-06-20 11:06:00,58.7,53.2,30.01,WSW,251,6.0,8.0,82,0.00,,,0.00,323,Wunderground v.1.15,2013-06-20 18:06:00,
2013-06-20 11:11:00,59.0,53.5,30.00,WSW,248,3.0,10.0,82,0.00,,,0.00,388,Wunderground v.1.15,2013-06-20 18:11:00,
2013-06-20 11:16:00,59.4,53.6,30.00,WSW,238,3.0,10.0,81,0.00,,,0.00,348,Wunderground v.1.15,2013-06-20 18:16:00,
2013-06-20 11:21:00,59.7,53.2,30.01,WNW,297,7.0,9.0,79,0.00,,,0.00,403,Wunderground v.1.15,2013-06-20 18:21:00,
2013-06-20 11:26:00,59.8,53.3,30.01,West,267,4.0,9.0,79,0.00,,,0.00,380,Wunderground v.1.15,2013-06-20 18:26:00,
2013-06-20 11:31:00,59.9,53.0,30.00,WSW,244,5.0,8.0,78,0.00,,,0.00,352,Wunderground v.1.15,2013-06-20 18:31:00,
2013-06-20 11:36:00,59.7,52.8,30.01,WSW,249,3.0,8.0,78,0.00,,,0.00,369,Wunderground v.1.15,2013-06-20 18:36:00,
2013-06-20 11:41:00,59.8,52.9,30.01,SW,232,7.0,7.0,78,0.00,,,0.00,381,Wunderground v.1.15,2013-06-20 18:41:00,
2013-06-20 11:46:00,59.9,52.3,30.01,South,190,6.0,8.0,76,0.00,,,0.00,376,Wunderground v.1.15,2013-06-20 18:46:00,
2013-06-20 11:54:00,60.2,53.0,30.01,WSW,254,6.0,6.0,77,0.00,,,0.00,388,Wunderground v.1.15,2013-06-20 18:54:00,
2013-06-20 11:59:00,60.4,53.2,30.01,SW,229,7.0,11.0,77,0.00,,,0.00,422,Wunderground v.1.15,2013-06-20 18:59:00,
2013-06-20 12:04:00,60.9,52.9,30.01,WSW,238,8.0,13.0,75,0.00,,,0.00,374,Wunderground v.1.15,2013-06-20 19:04:00,
2013-06-20 12:09:00,60.9,52.9,30.01,West,280,13.0,13.0,75,0.00,,,0.00,497,Wunderground v.1.15,2013-06-20 19:09:00,
2013-06-20 12:14:00,61.2,53.2,30.01,SSW,207,6.0,12.0,75,0.00,,,0.00,557,Wunderground v.1.15,2013-06-20 19:14:00,
2013-06-20 12:19:00,60.9,52.2,30.01,WSW,253,11.0,12.0,73,0.00,,,0.00,557,Wunderground v.1.15,2013-06-20 19:19:00,
2013-06-20 12:24:00,61.6,54.0,30.01,SSW,202,9.0,12.0,76,0.00,,,0.00,1023,Wunderground v.1.15,2013-06-20 19:24:00,
2013-06-20 12:29:00,62.2,53.4,30.01,SW,218,10.0,18.0,73,0.00,,,0.00,1025,Wunderground v.1.15,2013-06-20 19:29:00,
2013-06-20 12:34:00,62.4,53.3,30.00,SSW,207,8.0,12.0,72,0.00,,,0.00,540,Wunderground v.1.15,2013-06-20 19:34:00,
2013-06-20 12:39:00,62.0,52.1,30.01,WSW,246,6.0,15.0,70,0.00,,,0.00,469,Wunderground v.1.15,2013-06-20 19:39:00,
2013-06-20 12:44:00,61.5,53.9,30.01,SW,223,6.0,15.0,76,0.00,,,0.00,485,Wunderground v.1.15,2013-06-20 19:44:00,
2013-06-20 12:49:00,60.8,53.5,30.01,SW,229,13.0,15.0,77,0.00,,,0.00,550,Wunderground v.1.15,2013-06-20 19:49:00,
2013-06-20 12:54:00,61.0,53.7,30.01,SW,232,8.0,13.0,77,0.00,,,0.00,482,Wunderground v.1.15,2013-06-20 19:54:00,
2013-06-20 12:59:00,61.5,53.9,30.01,SSW,198,7.0,13.0,76,0.00,,,0.00,508,Wunderground v.1.15,2013-06-20 19:59:00,
2013-06-20 13:04:00,61.7,54.1,30.01,SW,234,3.0,12.0,76,0.00,,,0.00,468,Wunderground v.1.15,2013-06-20 20:04:00,
2013-06-20 13:09:00,61.9,53.5,30.01,SSW,198,10.0,12.0,74,0.00,,,0.00,183,Wunderground v.1.15,2013-06-20 20:09:00,
2013-06-20 13:14:00,61.5,53.1,30.01,SW,215,4.0,11.0,74,0.00,,,0.00,118,Wunderground v.1.15,2013-06-20 20:14:00,
2013-06-20 13:19:00,60.9,54.3,30.02,WNW,292,15.0,15.0,79,0.00,,,0.00,107,Wunderground v.1.15,2013-06-20 20:19:00,
2013-06-20 13:24:00,58.6,53.8,30.02,WNW,288,8.0,15.0,84,0.00,,,0.01,174,Wunderground v.1.15,2013-06-20 20:24:00,
2013-06-20 13:29:00,57.9,53.7,30.02,WNW,292,4.0,15.0,86,0.09,,,0.02,200,Wunderground v.1.15,2013-06-20 20:29:00,
2013-06-20 13:34:00,58.0,54.2,30.02,WNW,292,2.0,8.0,87,0.09,,,0.02,283,Wunderground v.1.15,2013-06-20 20:34:00,
2013-06-20 13:39:00,58.1,54.2,30.02,NW,325,4.0,8.0,87,0.05,,,0.02,394,Wunderground v.1.15,2013-06-20 20:39:00,
2013-06-20 13:44:00,58.5,54.6,30.02,NW,325,1.0,4.0,87,0.04,,,0.02,478,Wunderground v.1.15,2013-06-20 20:44:00,
2013-06-20 13:49:00,59.0,54.8,30.02,NW,325,4.0,6.0,86,0.00,,,0.02,596,Wunderground v.1.15,2013-06-20 20:49:00,
2013-06-20 13:54:00,59.5,54.7,30.01,NW,308,6.0,7.0,84,0.00,,,0.02,411,Wunderground v.1.15,2013-06-20 20:54:00,
2013-06-20 13:59:00,60.0,55.2,30.01,NNW,331,6.0,7.0,84,0.00,,,0.02,200,Wunderground v.1.15,2013-06-20 20:59:00,
2013-06-20 14:05:00,60.1,55.6,30.02,NW,317,13.0,13.0,85,0.00,,,0.02,244,Wunderground v.1.15,2013-06-20 21:05:00,
2013-06-20 14:10:00,60.0,54.2,30.02,WNW,303,11.0,16.0,81,0.00,,,0.02,401,Wunderground v.1.15,2013-06-20 21:10:00,
2013-06-20 14:15:00,60.0,54.8,30.02,WNW,286,7.0,15.0,83,0.00,,,0.02,464,Wunderground v.1.15,2013-06-20 21:15:00,
2013-06-20 14:20:00,60.1,54.2,30.03,NW,304,15.0,20.0,81,0.00,,,0.02,564,Wunderground v.1.15,2013-06-20 21:20:00,
2013-06-20 14:25:00,60.7,54.8,30.02,WNW,286,5.0,14.0,81,0.00,,,0.02,659,Wunderground v.1.15,2013-06-20 21:25:00,
2013-06-20 14:30:00,60.6,54.7,30.02,WNW,301,7.0,14.0,81,0.00,,,0.02,592,Wunderground v.1.15,2013-06-20 21:30:00,
2013-06-20 14:35:00,61.2,55.0,30.02,West,263,6.0,13.0,80,0.00,,,0.02,694,Wunderground v.1.15,2013-06-20 21:35:00,
2013-06-20 14:40:00,61.7,54.8,30.03,West,273,9.0,9.0,78,0.00,,,0.02,601,Wunderground v.1.15,2013-06-20 21:40:00,
2013-06-20 14:45:00,61.6,55.4,30.03,West,267,11.0,11.0,80,0.00,,,0.02,204,Wunderground v.1.15,2013-06-20 21:45:00,
2013-06-20 14:50:00,61.2,53.9,30.02,West,265,10.0,10.0,77,0.00,,,0.02,204,Wunderground v.1.15,2013-06-20 21:50:00,
2013-06-20 14:55:00,60.9,54.3,30.02,SW,215,8.0,10.0,79,0.00,,,0.02,186,Wunderground v.1.15,2013-06-20 21:55:00,
2013-06-20 15:00:00,60.4,54.2,30.02,SW,215,5.0,10.0,80,0.00,,,0.02,169,Wunderground v.1.15,2013-06-20 22:00:00,
2013-06-20 15:05:00,60.0,54.5,30.03,SSW,209,8.0,10.0,82,0.00,,,0.02,127,Wunderground v.1.15,2013-06-20 22:05:00,
2013-06-20 15:10:00,59.8,54.3,30.03,SW,219,4.0,10.0,82,0.00,,,0.02,171,Wunderground v.1.15,2013-06-20 22:10:00,
2013-06-20 15:15:00,59.8,54.6,30.03,SW,235,5.0,7.0,83,0.00,,,0.02,172,Wunderground v.1.15,2013-06-20 22:15:00,
2013-06-20 15:20:00,59.8,54.3,30.03,WSW,257,3.0,5.0,82,0.00,,,0.02,169,Wunderground v.1.15,2013-06-20 22:20:00,
2013-06-20 15:25:00,60.1,54.9,30.04,WSW,242,1.0,5.0,83,0.00,,,0.02,190,Wunderground v.1.15,2013-06-20 22:25:00,
2013-06-20 15:30:00,60.4,54.5,30.04,WSW,242,2.0,3.0,81,0.00,,,0.02,190,Wunderground v.1.15,2013-06-20 22:30:00,
2013-06-20 15:35:00,60.5,55.0,30.04,SW,217,4.0,5.0,82,0.00,,,0.02,214,Wunderground v.1.15,2013-06-20 22:35:00,
2013-06-20 15:40:00,60.5,55.0,30.04,SW,217,2.0,3.0,82,0.00,,,0.02,292,Wunderground v.1.15,2013-06-20 22:40:00,
2013-06-20 15:45:00,60.7,55.2,30.04,SW,217,3.0,6.0,82,0.00,,,0.02,322,Wunderground v.1.15,2013-06-20 22:45:00,
2013-06-20 15:50:00,60.7,55.2,30.04,South,191,5.0,5.0,82,0.00,,,0.02,341,Wunderground v.1.15,2013-06-20 22:50:00,
2013-06-20 15:55:00,60.8,55.3,30.04,SSW,208,4.0,6.0,82,0.00,,,0.02,264,Wunderground v.1.15,2013-06-20 22:55:00,
2013-06-20 16:00:00,61.0,55.1,30.04,SSW,211,4.0,5.0,81,0.00,,,0.02,204,Wunderground v.1.15,2013-06-20 23:00:00,
2013-06-20 16:05:00,60.9,54.7,30.05,SSW,211,3.0,5.0,80,0.00,,,0.02,141,Wunderground v.1.15,2013-06-20 23:05:00,
2013-06-20 16:10:00,61.0,54.8,30.05,SSW,212,2.0,3.0,80,0.00,,,0.02,123,Wunderground v.1.15,2013-06-20 23:10:00,
2013-06-20 16:15:00,60.6,54.4,30.05,SSW,212,4.0,6.0,80,0.00,,,0.02,137,Wunderground v.1.15,2013-06-20 23:15:00,
2013-06-20 16:20:00,60.5,54.6,30.05,SSW,212,3.0,4.0,81,0.00,,,0.02,160,Wunderground v.1.15,2013-06-20 23:20:00,
2013-06-20 16:25:00,60.7,54.8,30.05,SSW,212,0.0,4.0,81,0.00,,,0.02,267,Wunderground v.1.15,2013-06-20 23:25:00,
2013-06-20 16:30:00,61.0,53.4,30.05,SW,226,3.0,3.0,76,0.00,,,0.02,264,Wunderground v.1.15,2013-06-20 23:30:00,
2013-06-20 16:35:00,61.3,55.1,30.05,SW,226,3.0,4.0,80,0.00,,,0.02,281,Wunderground v.1.15,2013-06-20 23:35:00,
2013-06-20 16:40:00,61.3,53.7,30.05,SW,226,0.0,2.0,76,0.00,,,0.02,236,Wunderground v.1.15,2013-06-20 23:40:00,
2013-06-20 16:45:00,61.5,53.9,30.05,NW,306,6.0,7.0,76,0.00,,,0.02,244,Wunderground v.1.15,2013-06-20 23:45:00,
2013-06-20 16:50:00,61.3,52.9,30.06,NW,306,7.0,7.0,74,0.00,,,0.02,199,Wunderground v.1.15,2013-06-20 23:50:00,
2013-06-20 16:55:00,61.1,53.1,30.06,WNW,290,2.0,8.0,75,0.00,,,0.02,209,Wunderground v.1.15,2013-06-20 23:55:00,
2013-06-20 17:00:00,61.2,53.2,30.06,West,278,5.0,5.0,75,0.00,,,0.02,188,Wunderground v.1.15,2013-06-21 00:00:00,
2013-06-20 17:05:00,61.1,53.1,30.06,WNW,290,7.0,7.0,75,0.00,,,0.02,186,Wunderground v.1.15,2013-06-21 00:05:00,
2013-06-20 17:10:00,61.1,52.4,30.06,WNW,294,5.0,5.0,73,0.00,,,0.02,186,Wunderground v.1.15,2013-06-21 00:10:00,
2013-06-20 17:15:00,61.2,52.5,30.06,West,270,6.0,7.0,73,0.00,,,0.02,185,Wunderground v.1.15,2013-06-21 00:15:00,
2013-06-20 17:20:00,61.2,52.1,30.06,WNW,289,2.0,5.0,72,0.00,,,0.02,156,Wunderground v.1.15,2013-06-21 00:20:00,
2013-06-20 17:25:00,61.2,52.1,30.06,WNW,302,5.0,8.0,72,0.00,,,0.02,156,Wunderground v.1.15,2013-06-21 00:25:00,
2013-06-20 17:30:00,61.3,52.2,30.06,WNW,298,2.0,4.0,72,0.00,,,0.02,134,Wunderground v.1.15,2013-06-21 00:30:00,
2013-06-20 17:35:00,61.4,51.9,30.06,WNW,293,2.0,8.0,71,0.00,,,0.02,114,Wunderground v.1.15,2013-06-21 00:35:00,
2013-06-20 17:40:00,61.3,51.8,30.06,West,281,2.0,4.0,71,0.00,,,0.02,100,Wunderground v.1.15,2013-06-21 00:40:00,
2013-06-20 17:45:00,61.4,51.9,30.06,West,281,2.0,6.0,71,0.00,,,0.02,134,Wunderground v.1.15,2013-06-21 00:45:00,
2013-06-20 17:50:00,61.5,52.4,30.06,West,281,0.0,3.0,72,0.00,,,0.02,127,Wunderground v.1.15,2013-06-21 00:50:00,
2013-06-20 17:55:00,61.4,52.7,30.06,West,281,4.0,4.0,73,0.00,,,0.02,128,Wunderground v.1.15,2013-06-21 00:55:00,
2013-06-20 18:01:00,61.0,52.7,30.07,West,281,2.0,4.0,74,0.00,,,0.02,109,Wunderground v.1.15,2013-06-21 01:01:00,
2013-06-20 18:06:00,60.9,53.3,30.07,West,281,1.0,4.0,76,0.00,,,0.02,86,Wunderground v.1.15,2013-06-21 01:06:00,
2013-06-20 18:11:00,60.7,52.4,30.07,West,281,1.0,2.0,74,0.00,,,0.02,70,Wunderground v.1.15,2013-06-21 01:11:00,
2013-06-20 18:16:00,60.7,53.1,30.07,West,281,0.0,2.0,76,0.00,,,0.03,60,Wunderground v.1.15,2013-06-21 01:16:00,
2013-06-20 18:21:00,60.7,53.1,30.07,West,281,2.0,2.0,76,0.00,,,0.03,70,Wunderground v.1.15,2013-06-21 01:21:00,
2013-06-20 18:26:00,60.7,53.1,30.07,West,281,0.0,4.0,76,0.00,,,0.03,88,Wunderground v.1.15,2013-06-21 01:26:00,
2013-06-20 18:31:00,60.9,53.3,30.07,West,281,1.0,2.0,76,0.00,,,0.03,95,Wunderground v.1.15,2013-06-21 01:31:00,
2013-06-20 18:36:00,61.0,51.5,30.07,West,281,5.0,5.0,71,0.00,,,0.03,116,Wunderground v.1.15,2013-06-21 01:36:00,
2013-06-20 18:41:00,61.2,51.3,30.07,West,281,2.0,4.0,70,0.00,,,0.03,118,Wunderground v.1.15,2013-06-21 01:41:00,
2013-06-20 18:46:00,61.2,51.3,30.07,WNW,302,6.0,11.0,70,0.00,,,0.03,113,Wunderground v.1.15,2013-06-21 01:46:00,
2013-06-20 18:51:00,61.1,51.2,30.07,WNW,292,7.0,8.0,70,0.00,,,0.03,95,Wunderground v.1.15,2013-06-21 01:51:00,
2013-06-20 18:56:00,60.8,50.6,30.07,WNW,302,6.0,10.0,69,0.00,,,0.03,114,Wunderground v.1.15,2013-06-21 01:56:00,
2013-06-20 19:01:00,60.6,51.1,30.07,NW,306,4.0,7.0,71,0.00,,,0.03,113,Wunderground v.1.15,2013-06-21 02:01:00,
2013-06-20 19:06:00,60.4,50.6,30.07,WNW,298,6.0,12.0,70,0.00,,,0.03,74,Wunderground v.1.15,2013-06-21 02:06:00,
2013-06-20 19:11:00,60.2,50.8,30.07,NW,304,8.0,9.0,71,0.00,,,0.03,69,Wunderground v.1.15,2013-06-21 02:11:00,
2013-06-20 19:16:00,60.1,50.7,30.08,NW,311,4.0,9.0,71,0.00,,,0.03,74,Wunderground v.1.15,2013-06-21 02:16:00,
2013-06-20 19:21:00,60.0,50.9,30.08,WNW,286,7.0,9.0,72,0.00,,,0.03,58,Wunderground v.1.15,2013-06-21 02:21:00,
2013-06-20 19:26:00,59.9,50.8,30.07,WNW,286,12.0,13.0,72,0.00,,,0.03,49,Wunderground v.1.15,2013-06-21 02:26:00,
2013-06-20 19:31:00,59.7,51.0,30.08,NW,310,9.0,9.0,73,0.00,,,0.03,49,Wunderground v.1.15,2013-06-21 02:31:00,
2013-06-20 19:36:00,59.5,50.8,30.08,WNW,285,7.0,13.0,73,0.00,,,0.03,39,Wunderground v.1.15,2013-06-21 02:36:00,
2013-06-20 19:41:00,59.2,50.5,30.07,West,281,6.0,9.0,73,0.00,,,0.03,30,Wunderground v.1.15,2013-06-21 02:41:00,
2013-06-20 19:46:00,58.9,50.3,30.07,WNW,298,7.0,14.0,73,0.00,,,0.03,25,Wunderground v.1.15,2013-06-21 02:46:00,
2013-06-20 19:51:00,58.8,50.2,30.08,NW,310,11.0,11.0,73,0.00,,,0.03,28,Wunderground v.1.15,2013-06-21 02:51:00,
2013-06-20 19:56:00,58.7,50.1,30.07,WNW,294,5.0,11.0,73,0.00,,,0.03,25,Wunderground v.1.15,2013-06-21 02:56:00,
2013-06-20 20:01:00,58.5,49.9,30.07,WNW,284,7.0,9.0,73,0.00,,,0.03,23,Wunderground v.1.15,2013-06-21 03:01:00,
2013-06-20 20:06:00,58.3,49.7,30.08,WNW,295,4.0,12.0,73,0.00,,,0.03,21,Wunderground v.1.15,2013-06-21 03:06:00,
2013-06-20 20:11:00,58.2,49.6,30.08,WNW,296,7.0,9.0,73,0.00,,,0.03,18,Wunderground v.1.15,2013-06-21 03:11:00,
2013-06-20 20:16:00,58.2,49.6,30.08,WNW,288,4.0,9.0,73,0.00,,,0.03,14,Wunderground v.1.15,2013-06-21 03:16:00,
2013-06-20 20:21:00,58.1,49.5,30.08,NW,316,8.0,9.0,73,0.00,,,0.03,11,Wunderground v.1.15,2013-06-21 03:21:00,
2013-06-20 20:26:00,58.0,49.8,30.08,NW,324,5.0,9.0,74,0.00,,,0.03,7,Wunderground v.1.15,2013-06-21 03:26:00,
2013-06-20 20:31:00,57.9,49.7,30.09,NNW,331,4.0,8.0,74,0.00,,,0.03,5,Wunderground v.1.15,2013-06-21 03:31:00,
2013-06-20 20:36:00,57.8,49.6,30.09,NW,321,8.0,10.0,74,0.00,,,0.03,7,Wunderground v.1.15,2013-06-21 03:36:00,
2013-06-20 20:41:00,57.8,49.9,30.09,NW,315,7.0,9.0,75,0.00,,,0.03,7,Wunderground v.1.15,2013-06-21 03:41:00,
2013-06-20 20:46:00,57.7,49.8,30.09,NW,317,7.0,9.0,75,0.00,,,0.03,5,Wunderground v.1.15,2013-06-21 03:46:00,
2013-06-20 20:51:00,57.6,50.1,30.10,North,355,7.0,11.0,76,0.00,,,0.03,0,Wunderground v.1.15,2013-06-21 03:51:00,
2013-06-20 20:56:00,57.5,50.0,30.10,NW,311,5.0,11.0,76,0.00,,,0.03,0,Wunderground v.1.15,2013-06-21 03:56:00,
2013-06-20 21:01:00,57.5,50.3,30.10,NW,325,5.0,8.0,77,0.00,,,0.03,0,Wunderground v.1.15,2013-06-21 04:01:00,
2013-06-20 21:06:00,57.4,50.2,30.10,NNW,338,2.0,8.0,77,0.00,,,0.03,0,Wunderground v.1.15,2013-06-21 04:06:00,
2013-06-20 21:11:00,57.4,50.2,30.10,NW,320,2.0,5.0,77,0.00,,,0.03,0,Wunderground v.1.15,2013-06-21 04:11:00,
2013-06-20 21:16:00,57.3,50.5,30.10,NW,320,1.0,5.0,78,0.00,,,0.03,0,Wunderground v.1.15,2013-06-21 04:16:00,
2013-06-20 21:21:00,57.2,50.4,30.10,NW,318,2.0,4.0,78,0.00,,,0.03,0,Wunderground v.1.15,2013-06-21 04:21:00,
2013-06-20 21:26:00,57.1,50.6,30.10,NW,314,6.0,7.0,79,0.00,,,0.03,0,Wunderground v.1.15,2013-06-21 04:26:00,
2013-06-20 21:31:00,57.0,50.9,30.11,NW,323,2.0,5.0,80,0.00,,,0.03,0,Wunderground v.1.15,2013-06-21 04:31:00,
2013-06-20 21:36:00,56.9,50.8,30.11,NW,305,2.0,7.0,80,0.00,,,0.03,0,Wunderground v.1.15,2013-06-21 04:36:00,
2013-06-20 21:41:00,56.8,50.7,30.11,NW,318,6.0,6.0,80,0.00,,,0.03,0,Wunderground v.1.15,2013-06-21 04:41:00,
2013-06-20 21:46:00,56.7,50.9,30.11,NW,310,2.0,7.0,81,0.00,,,0.03,0,Wunderground v.1.15,2013-06-21 04:46:00,
2013-06-20 21:51:00,56.4,50.6,30.11,NW,315,5.0,6.0,81,0.00,,,0.03,0,Wunderground v.1.15,2013-06-21 04:51:00,
2013-06-20 21:56:00,56.3,50.5,30.11,West,264,2.0,6.0,81,0.00,,,0.03,0,Wunderground v.1.15,2013-06-21 04:56:00,
2013-06-20 22:01:00,56.0,50.6,30.11,WNW,299,4.0,6.0,82,0.00,,,0.03,0,Wunderground v.1.15,2013-06-21 05:01:00,
2013-06-20 22:06:00,55.8,50.7,30.11,NW,323,4.0,8.0,83,0.00,,,0.03,0,Wunderground v.1.15,2013-06-21 05:06:00,
2013-06-20 22:11:00,55.6,50.8,30.11,NNW,328,6.0,7.0,84,0.00,,,0.03,0,Wunderground v.1.15,2013-06-21 05:11:00,
2013-06-20 22:17:00,55.6,50.5,30.12,NW,306,4.0,7.0,83,0.00,,,0.03,0,Wunderground v.1.15,2013-06-21 05:17:00,
2013-06-20 22:22:00,55.6,50.5,30.12,NW,315,2.0,6.0,83,0.00,,,0.03,0,Wunderground v.1.15,2013-06-21 05:22:00,
2013-06-20 22:27:00,55.4,50.6,30.12,NNW,328,4.0,6.0,84,0.00,,,0.03,0,Wunderground v.1.15,2013-06-21 05:27:00,
2013-06-20 22:32:00,55.3,50.9,30.12,WNW,292,5.0,5.0,85,0.00,,,0.03,0,Wunderground v.1.15,2013-06-21 05:32:00,
2013-06-20 22:37:00,55.2,50.8,30.12,NW,315,4.0,6.0,85,0.00,,,0.03,0,Wunderground v.1.15,2013-06-21 05:37:00,
2013-06-20 22:42:00,55.0,50.9,30.12,WNW,302,4.0,4.0,86,0.00,,,0.03,0,Wunderground v.1.15,2013-06-21 05:42:00,
2013-06-20 22:47:00,54.9,50.8,30.12,NW,306,1.0,4.0,86,0.00,,,0.04,0,Wunderground v.1.15,2013-06-21 05:47:00,
2013-06-20 22:52:00,54.8,50.7,30.12,NW,306,0.0,1.0,86,0.00,,,0.04,0,Wunderground v.1.15,2013-06-21 05:52:00,
2013-06-20 22:57:00,54.8,51.0,30.12,NW,306,0.0,1.0,87,0.00,,,0.04,0,Wunderground v.1.15,2013-06-21 05:57:00,
2013-06-20 23:02:00,54.5,50.7,30.12,NW,306,0.0,0.0,87,0.00,,,0.04,0,Wunderground v.1.15,2013-06-21 06:02:00,
2013-06-20 23:07:00,54.4,50.6,30.12,NW,306,0.0,0.0,87,0.00,,,0.04,0,Wunderground v.1.15,2013-06-21 06:07:00,
2013-06-20 23:12:00,54.2,50.4,30.12,NW,306,2.0,2.0,87,0.00,,,0.04,0,Wunderground v.1.15,2013-06-21 06:12:00,
2013-06-20 23:17:00,54.0,50.5,30.12,NW,306,0.0,2.0,88,0.00,,,0.04,0,Wunderground v.1.15,2013-06-21 06:17:00,
2013-06-20 23:22:00,53.9,50.1,30.12,NW,306,0.0,1.0,87,0.00,,,0.04,0,Wunderground v.1.15,2013-06-21 06:22:00,
2013-06-20 23:27:00,53.8,50.0,30.12,NW,306,0.0,1.0,87,0.00,,,0.04,0,Wunderground v.1.15,2013-06-21 06:27:00,
2013-06-20 23:32:00,53.8,50.0,30.12,NW,306,0.0,0.0,87,0.00,,,0.04,0,Wunderground v.1.15,2013-06-21 06:32:00,
2013-06-20 23:37:00,53.9,50.1,30.12,NW,306,0.0,0.0,87,0.00,,,0.04,0,Wunderground v.1.15,2013-06-21 06:37:00,
2013-06-20 23:42:00,53.9,50.1,30.12,NW,306,0.0,0.0,87,0.00,,,0.04,0,Wunderground v.1.15,2013-06-21 06:42:00,
2013-06-20 23:47:00,53.9,50.1,30.12,NW,306,0.0,0.0,87,0.00,,,0.05,0,Wunderground v.1.15,2013-06-21 06:47:00,
2013-06-20 23:54:00,53.4,49.6,30.12,NW,306,0.0,0.0,87,0.00,,,0.05,0,Wunderground v.1.15,2013-06-21 06:54:00,
2013-06-20 23:59:00,53.3,49.5,30.12,NW,306,1.0,1.0,87,0.00,,,0.05,0,Wunderground v.1.15,2013-06-21 06:59:00,